createdAt,value
2017-03-27T00:00:44.915Z,48.24
2017-03-27T00:02:52.771Z,48.12
2017-03-27T00:03:45.705Z,48.70
2017-03-27T00:05:39.948Z,47.49
2017-03-27T00:06:51.089Z,47.40
2017-03-27T00:07:33.347Z,47.71
2017-03-27T00:09:46.365Z,48.48
2017-03-27T00:10:44.792Z,48.78
2017-03-27T00:11:38.793Z,48.35
2017-03-27T00:13:51.083Z,48.99
2017-03-27T00:14:38.561Z,48.88
2017-03-27T00:16:55.251Z,49.14
2017-03-27T00:17:40.214Z,49.64
2017-03-27T00:18:45.567Z,49.69
2017-03-27T00:21:38.312Z,50.85
2017-03-27T00:22:50.309Z,51.08
2017-03-27T00:24:45.578Z,51.53
2017-03-27T00:25:40.503Z,50.85
2017-03-27T00:26:45.436Z,50.76
2017-03-27T00:28:51.151Z,51.03
2017-03-27T00:32:45.513Z,51.88
2017-03-27T00:33:38.523Z,52.05
2017-03-27T00:34:49.293Z,51.87
2017-03-27T00:35:44.345Z,51.11
2017-03-27T00:37:40.418Z,51.34
2017-03-27T00:38:49.102Z,51.89
2017-03-27T00:42:48.574Z,51.73
2017-03-27T00:46:42.655Z,53.12
2017-03-27T00:48:51.182Z,54.19
2017-03-27T00:49:50.805Z,53.38
2017-03-27T00:50:28.637Z,52.85
2017-03-27T00:53:48.851Z,53.35
2017-03-27T00:55:42.587Z,53.22
2017-03-27T00:56:45.654Z,52.87
2017-03-27T00:59:45.698Z,52.80
2017-03-27T01:01:38.856Z,54.11
2017-03-27T01:02:40.816Z,53.43
2017-03-27T01:03:38.552Z,54.01
2017-03-27T01:06:40.575Z,54.10
2017-03-27T01:07:33.771Z,54.42
2017-03-27T01:08:44.615Z,54.65
2017-03-27T01:09:42.954Z,55.16
2017-03-27T01:10:33.095Z,55.17
2017-03-27T01:12:33.824Z,55.22
2017-03-27T01:14:45.184Z,54.81
2017-03-27T01:16:46.069Z,53.75
2017-03-27T01:17:34.334Z,53.60
2017-03-27T01:18:38.890Z,53.19
2017-03-27T01:19:45.277Z,53.48
2017-03-27T01:20:44.938Z,53.73
2017-03-27T01:21:45.064Z,53.31
2017-03-27T01:22:33.340Z,52.80
2017-03-27T01:23:33.261Z,52.98
2017-03-27T01:24:33.314Z,52.26
2017-03-27T01:25:38.787Z,52.85
2017-03-27T01:26:38.494Z,53.26
2017-03-27T01:27:44.637Z,52.72
2017-03-27T01:28:38.966Z,52.74
2017-03-27T01:29:42.699Z,52.98
2017-03-27T01:30:34.117Z,52.20
2017-03-27T01:31:33.380Z,53.04
2017-03-27T01:32:33.366Z,52.71
2017-03-27T01:33:45.274Z,52.96
2017-03-27T01:34:33.397Z,52.42
2017-03-27T01:35:39.185Z,52.49
2017-03-27T01:36:38.194Z,52.96
2017-03-27T01:37:45.580Z,52.36
2017-03-27T01:38:33.589Z,52.83
2017-03-27T01:39:33.369Z,52.32
2017-03-27T01:40:44.588Z,52.83
2017-03-27T01:41:38.916Z,52.24
2017-03-27T01:42:33.242Z,52.46
2017-03-27T01:43:33.487Z,52.36
2017-03-27T01:44:38.868Z,52.52
2017-03-27T01:45:44.719Z,53.03
2017-03-27T01:46:33.852Z,53.88
2017-03-27T01:47:28.176Z,52.93
2017-03-27T01:48:40.331Z,52.92
2017-03-27T01:49:33.838Z,52.75
2017-03-27T01:50:38.731Z,52.83
2017-03-27T01:51:44.737Z,52.77
2017-03-27T01:52:33.383Z,52.81
2017-03-27T01:53:33.496Z,53.60
2017-03-27T01:54:38.909Z,54.38
2017-03-27T01:55:39.017Z,53.44
2017-03-27T01:56:38.176Z,54.45
2017-03-27T01:57:33.983Z,54.40
2017-03-27T01:58:46.052Z,54.87
2017-03-27T01:59:33.635Z,54.78
2017-03-27T02:00:33.067Z,54.06
2017-03-27T02:01:38.553Z,54.79
2017-03-27T02:02:38.602Z,54.85
2017-03-27T02:03:33.744Z,54.86
2017-03-27T02:04:38.380Z,55.31
2017-03-27T02:05:38.517Z,54.98
2017-03-27T02:06:33.700Z,54.62
2017-03-27T02:07:51.586Z,55.23
2017-03-27T02:08:33.719Z,54.99
2017-03-27T02:09:43.228Z,54.69
2017-03-27T02:10:33.287Z,54.52
2017-03-27T02:11:46.299Z,54.52
2017-03-27T02:12:33.433Z,53.75
2017-03-27T02:13:33.415Z,54.38
2017-03-27T02:14:43.305Z,55.14
2017-03-27T02:15:33.436Z,53.96
2017-03-27T02:16:45.296Z,55.30
2017-03-27T02:17:33.794Z,54.75
2017-03-27T02:18:33.422Z,55.08
2017-03-27T02:19:42.620Z,54.31
2017-03-27T02:20:44.318Z,54.65
2017-03-27T02:21:33.546Z,54.66
2017-03-27T02:22:38.563Z,54.71
2017-03-27T02:23:33.740Z,55.13
2017-03-27T02:24:33.471Z,54.33
2017-03-27T02:25:38.641Z,53.06
2017-03-27T02:26:40.318Z,53.68
2017-03-27T02:27:33.468Z,53.34
2017-03-27T02:28:33.488Z,54.30
2017-03-27T02:29:33.674Z,53.67
2017-03-27T02:30:33.455Z,54.08
2017-03-27T02:31:33.444Z,53.78
2017-03-27T02:32:33.450Z,53.55
2017-03-27T02:33:33.439Z,54.36
2017-03-27T02:34:33.525Z,54.04
2017-03-27T02:35:34.106Z,54.46
2017-03-27T02:36:34.142Z,53.64
2017-03-27T02:37:38.799Z,53.47
2017-03-27T02:38:34.118Z,53.81
2017-03-27T02:39:38.533Z,53.72
2017-03-27T02:40:51.096Z,52.98
2017-03-27T02:41:38.109Z,53.67
2017-03-27T02:42:34.710Z,53.14
2017-03-27T02:43:43.942Z,53.58
2017-03-27T02:44:38.177Z,53.17
2017-03-27T02:45:33.402Z,53.33
2017-03-27T02:46:39.126Z,53.90
2017-03-27T02:47:33.501Z,53.92
2017-03-27T02:48:33.877Z,54.49
2017-03-27T02:49:43.488Z,54.48
2017-03-27T02:50:50.258Z,54.07
2017-03-27T02:51:33.770Z,54.58
2017-03-27T02:52:33.517Z,54.05
2017-03-27T02:53:33.742Z,55.00
2017-03-27T02:54:38.456Z,53.98
2017-03-27T02:55:33.831Z,53.97
2017-03-27T02:56:37.830Z,54.02
2017-03-27T02:57:33.861Z,54.51
2017-03-27T02:58:34.127Z,53.64
2017-03-27T02:59:38.581Z,53.77
2017-03-27T03:00:34.084Z,54.15
2017-03-27T03:01:50.994Z,55.24
2017-03-27T03:02:43.378Z,54.61
2017-03-27T03:03:33.604Z,54.98
2017-03-27T03:04:37.903Z,54.55
2017-03-27T03:05:38.477Z,55.18
2017-03-27T03:06:45.478Z,55.02
2017-03-27T03:07:39.341Z,54.73
2017-03-27T03:08:38.891Z,54.74
2017-03-27T03:09:38.902Z,55.88
2017-03-27T03:10:37.791Z,54.91
2017-03-27T03:11:38.620Z,53.58
2017-03-27T03:12:37.580Z,54.10
2017-03-27T03:13:38.952Z,54.37
2017-03-27T03:14:37.633Z,54.53
2017-03-27T03:15:33.675Z,55.40
2017-03-27T03:16:40.351Z,55.04
2017-03-27T03:17:38.650Z,55.58
2017-03-27T03:18:33.515Z,54.94
2017-03-27T03:19:33.505Z,54.25
2017-03-27T03:20:39.639Z,54.72
2017-03-27T03:21:45.041Z,54.19
2017-03-27T03:22:43.029Z,53.99
2017-03-27T03:23:44.143Z,54.73
2017-03-27T03:24:38.176Z,54.68
2017-03-27T03:25:33.336Z,54.56
2017-03-27T03:26:38.291Z,54.53
2017-03-27T03:27:33.458Z,54.50
2017-03-27T03:28:44.943Z,54.56
2017-03-27T03:29:33.557Z,55.18
2017-03-27T03:30:33.629Z,55.50
2017-03-27T03:31:51.129Z,55.53
2017-03-27T03:32:42.943Z,55.40
2017-03-27T03:33:38.231Z,55.61
2017-03-27T03:34:42.885Z,55.72
2017-03-27T03:35:39.416Z,55.47
2017-03-27T03:36:33.841Z,55.62
2017-03-27T03:37:45.424Z,55.73
2017-03-27T03:38:33.937Z,56.39
2017-03-27T03:39:40.121Z,56.13
2017-03-27T03:40:33.310Z,55.32
2017-03-27T03:41:44.875Z,56.05
2017-03-27T03:42:39.373Z,55.93
2017-03-27T03:43:33.623Z,56.46
2017-03-27T03:44:45.580Z,55.83
2017-03-27T03:45:33.642Z,56.92
2017-03-27T03:46:38.546Z,56.12
2017-03-27T03:47:37.956Z,56.57
2017-03-27T03:48:33.215Z,56.29
2017-03-27T03:49:33.246Z,56.65
2017-03-27T03:50:33.534Z,55.98
2017-03-27T03:51:43.432Z,56.10
2017-03-27T03:52:33.689Z,56.06
2017-03-27T03:53:44.844Z,55.90
2017-03-27T03:54:33.896Z,55.86
2017-03-27T03:55:39.023Z,55.41
2017-03-27T03:56:33.802Z,56.65
2017-03-27T03:57:38.814Z,56.69
2017-03-27T03:58:39.075Z,56.72
2017-03-27T03:59:33.397Z,56.90
2017-03-27T04:00:44.446Z,57.18
2017-03-27T04:01:45.314Z,56.41
2017-03-27T04:02:41.134Z,56.91
2017-03-27T04:03:38.269Z,56.68
2017-03-27T04:04:33.374Z,55.91
2017-03-27T04:05:33.618Z,56.73
2017-03-27T04:06:43.628Z,56.43
2017-03-27T04:07:38.895Z,57.06
2017-03-27T04:08:49.310Z,57.10
2017-03-27T04:09:38.374Z,56.48
2017-03-27T04:10:45.223Z,56.10
2017-03-27T04:11:33.268Z,56.95
2017-03-27T04:12:51.019Z,57.06
2017-03-27T04:13:37.926Z,57.04
2017-03-27T04:14:43.055Z,57.21
2017-03-27T04:15:42.594Z,56.98
2017-03-27T04:16:44.874Z,57.28
2017-03-27T04:17:38.569Z,57.18
2017-03-27T04:18:39.566Z,56.63
2017-03-27T04:19:38.483Z,56.73
2017-03-27T04:20:38.674Z,56.88
2017-03-27T04:21:38.749Z,57.97
2017-03-27T04:22:38.906Z,57.35
2017-03-27T04:23:38.936Z,57.19
2017-03-27T04:24:42.432Z,56.67
2017-03-27T04:26:34.251Z,56.57
2017-03-27T04:27:39.354Z,56.09
2017-03-27T04:28:33.966Z,56.49
2017-03-27T04:29:44.930Z,56.41
2017-03-27T04:30:42.562Z,57.10
2017-03-27T04:31:38.766Z,58.14
2017-03-27T04:32:45.435Z,57.89
2017-03-27T04:33:33.939Z,57.41
2017-03-27T04:34:33.968Z,57.68
2017-03-27T04:35:33.407Z,57.62
2017-03-27T04:36:33.300Z,57.50
2017-03-27T04:37:40.428Z,56.83
2017-03-27T04:38:42.714Z,57.45
2017-03-27T04:39:33.912Z,58.38
2017-03-27T04:40:33.322Z,58.15
2017-03-27T04:41:43.443Z,58.46
2017-03-27T04:42:38.779Z,58.00
2017-03-27T04:43:45.185Z,57.43
2017-03-27T04:44:38.244Z,57.34
2017-03-27T04:45:42.908Z,57.77
2017-03-27T04:46:34.101Z,57.43
2017-03-27T04:47:45.343Z,57.09
2017-03-27T04:48:44.269Z,57.40
2017-03-27T04:49:33.331Z,57.80
2017-03-27T04:50:33.562Z,57.73
2017-03-27T04:51:33.679Z,58.60
2017-03-27T04:52:38.767Z,57.90
2017-03-27T04:53:34.052Z,58.05
2017-03-27T04:54:39.548Z,57.59
2017-03-27T04:55:33.938Z,58.82
2017-03-27T04:56:39.337Z,59.47
2017-03-27T04:57:38.714Z,57.87
2017-03-27T04:58:43.773Z,57.68
2017-03-27T04:59:38.791Z,58.49
2017-03-27T05:00:45.556Z,58.57
2017-03-27T05:01:33.700Z,57.70
2017-03-27T05:02:33.640Z,57.75
2017-03-27T05:03:38.546Z,57.96
2017-03-27T05:04:38.848Z,57.76
2017-03-27T05:05:43.817Z,58.65
2017-03-27T05:06:45.506Z,58.42
2017-03-27T05:07:38.340Z,58.02
2017-03-27T05:08:33.698Z,57.06
2017-03-27T05:09:39.194Z,57.78
2017-03-27T05:10:40.632Z,57.64
2017-03-27T05:11:33.810Z,58.23
2017-03-27T05:12:45.285Z,58.48
2017-03-27T05:13:43.856Z,58.78
2017-03-27T05:14:34.100Z,58.64
2017-03-27T05:15:42.294Z,57.28
2017-03-27T05:16:45.292Z,57.94
2017-03-27T05:17:33.546Z,57.84
2017-03-27T05:18:34.425Z,58.15
2017-03-27T05:19:38.970Z,58.68
2017-03-27T05:20:43.245Z,58.65
2017-03-27T05:21:38.864Z,58.72
2017-03-27T05:22:50.151Z,57.55
2017-03-27T05:23:38.401Z,58.08
2017-03-27T05:24:33.566Z,58.09
2017-03-27T05:25:39.120Z,57.72
2017-03-27T05:26:40.689Z,57.42
2017-03-27T05:27:33.773Z,57.57
2017-03-27T05:28:43.442Z,57.87
2017-03-27T05:29:38.351Z,59.05
2017-03-27T05:30:48.657Z,58.25
2017-03-27T05:31:34.159Z,57.94
2017-03-27T05:32:33.668Z,57.38
2017-03-27T05:33:38.328Z,57.16
2017-03-27T05:34:33.552Z,58.17
2017-03-27T05:35:39.049Z,57.91
2017-03-27T05:36:38.300Z,58.22
2017-03-27T05:37:45.456Z,57.78
2017-03-27T05:38:43.594Z,57.47
2017-03-27T05:39:38.734Z,58.48
2017-03-27T05:40:38.709Z,56.86
2017-03-27T05:41:40.771Z,57.19
2017-03-27T05:42:33.858Z,57.27
2017-03-27T05:43:38.954Z,57.54
2017-03-27T05:44:33.748Z,57.15
2017-03-27T05:45:38.392Z,57.06
2017-03-27T05:46:38.404Z,56.90
2017-03-27T05:47:38.676Z,57.02
2017-03-27T05:48:33.763Z,57.89
2017-03-27T05:49:42.963Z,57.23
2017-03-27T05:50:37.963Z,57.74
2017-03-27T05:51:43.256Z,58.20
2017-03-27T05:52:33.467Z,57.88
2017-03-27T05:53:38.144Z,58.01
2017-03-27T05:54:45.149Z,56.92
2017-03-27T05:55:38.340Z,56.80
2017-03-27T05:56:46.352Z,57.37
2017-03-27T05:57:42.971Z,57.68
2017-03-27T05:58:43.048Z,56.70
2017-03-27T05:59:37.783Z,56.87
2017-03-27T06:00:33.820Z,57.02
2017-03-27T06:01:46.452Z,56.54
2017-03-27T06:02:38.691Z,56.97
2017-03-27T06:03:38.584Z,56.74
2017-03-27T06:04:33.779Z,57.25
2017-03-27T06:05:38.340Z,57.72
2017-03-27T06:06:40.158Z,57.42
2017-03-27T06:07:38.102Z,56.73
2017-03-27T06:08:38.632Z,56.63
2017-03-27T06:09:34.236Z,55.87
2017-03-27T06:10:33.777Z,55.61
2017-03-27T06:11:37.969Z,55.10
2017-03-27T06:12:43.029Z,55.14
2017-03-27T06:13:38.028Z,55.56
2017-03-27T06:14:37.956Z,55.18
2017-03-27T06:15:43.695Z,55.49
2017-03-27T06:16:34.126Z,55.30
2017-03-27T06:17:46.520Z,54.85
2017-03-27T06:18:38.673Z,55.59
2017-03-27T06:19:33.806Z,55.76
2017-03-27T06:20:33.790Z,54.73
2017-03-27T06:21:38.582Z,54.45
2017-03-27T06:22:33.603Z,54.72
2017-03-27T06:23:33.749Z,55.82
2017-03-27T06:24:45.340Z,56.09
2017-03-27T06:25:43.583Z,54.98
2017-03-27T06:26:38.714Z,56.38
2017-03-27T06:27:38.642Z,54.99
2017-03-27T06:28:33.744Z,56.22
2017-03-27T06:29:45.196Z,55.57
2017-03-27T06:30:43.391Z,55.22
2017-03-27T06:31:43.419Z,56.15
2017-03-27T06:32:42.765Z,54.70
2017-03-27T06:33:33.950Z,53.71
2017-03-27T06:34:38.870Z,54.03
2017-03-27T06:35:33.473Z,53.80
2017-03-27T06:36:45.418Z,53.88
2017-03-27T06:37:34.560Z,53.82
2017-03-27T06:38:34.079Z,53.43
2017-03-27T06:39:43.032Z,52.71
2017-03-27T06:40:38.032Z,53.38
2017-03-27T06:41:38.220Z,53.95
2017-03-27T06:42:43.033Z,54.13
2017-03-27T06:43:38.036Z,53.35
2017-03-27T06:44:38.181Z,53.48
2017-03-27T06:45:40.206Z,53.48
2017-03-27T06:46:44.313Z,53.41
2017-03-27T06:47:33.614Z,53.27
2017-03-27T06:48:39.286Z,53.87
2017-03-27T06:49:33.474Z,53.85
2017-03-27T06:50:38.338Z,53.65
2017-03-27T06:51:33.665Z,53.87
2017-03-27T06:52:37.105Z,54.10
2017-03-27T06:53:45.495Z,52.64
2017-03-27T06:54:33.858Z,52.90
2017-03-27T06:55:39.356Z,53.20
2017-03-27T06:56:38.411Z,53.87
2017-03-27T06:57:22.553Z,53.50
2017-03-27T06:58:45.578Z,52.73
2017-03-27T06:59:33.795Z,53.14
2017-03-27T07:00:45.822Z,53.32
2017-03-27T07:01:34.038Z,53.85
2017-03-27T07:02:48.071Z,53.73
2017-03-27T07:03:33.516Z,52.82
2017-03-27T07:04:38.869Z,52.77
2017-03-27T07:05:33.554Z,52.91
2017-03-27T07:06:45.583Z,53.18
2017-03-27T07:07:38.948Z,53.16
2017-03-27T07:08:33.916Z,53.06
2017-03-27T07:09:45.584Z,53.46
2017-03-27T07:10:33.630Z,53.33
2017-03-27T07:11:43.438Z,53.55
2017-03-27T07:12:33.508Z,53.12
2017-03-27T07:13:43.690Z,53.44
2017-03-27T07:14:33.845Z,54.10
2017-03-27T07:15:33.508Z,53.40
2017-03-27T07:16:45.019Z,53.72
2017-03-27T07:17:42.762Z,52.62
2017-03-27T07:18:38.831Z,52.64
2017-03-27T07:19:43.166Z,52.79
2017-03-27T07:20:45.379Z,52.91
2017-03-27T07:21:39.789Z,53.16
2017-03-27T07:22:40.999Z,52.47
2017-03-27T07:23:33.701Z,52.78
2017-03-27T07:24:43.040Z,53.00
2017-03-27T07:25:38.238Z,52.90
2017-03-27T07:26:38.318Z,53.34
2017-03-27T07:27:38.469Z,53.14
2017-03-27T07:28:38.354Z,53.41
2017-03-27T07:29:28.730Z,53.40
2017-03-27T07:30:42.763Z,53.02
2017-03-27T07:31:33.936Z,52.77
2017-03-27T07:32:38.458Z,52.53
2017-03-27T07:33:43.211Z,53.56
2017-03-27T07:34:38.022Z,52.82
2017-03-27T07:35:45.058Z,53.78
2017-03-27T07:36:38.026Z,53.58
2017-03-27T07:37:37.989Z,53.52
2017-03-27T07:38:43.152Z,53.29
2017-03-27T07:39:44.291Z,54.10
2017-03-27T07:40:38.932Z,53.90
2017-03-27T07:41:33.133Z,53.39
2017-03-27T07:42:37.908Z,53.22
2017-03-27T07:43:34.141Z,52.84
2017-03-27T07:44:33.735Z,52.67
2017-03-27T07:45:34.213Z,53.44
2017-03-27T07:46:45.991Z,53.34
2017-03-27T07:47:37.898Z,52.87
2017-03-27T07:48:45.962Z,52.80
2017-03-27T07:49:32.130Z,52.36
2017-03-27T07:50:34.201Z,53.26
2017-03-27T07:51:34.305Z,52.60
2017-03-27T07:52:33.653Z,52.67
2017-03-27T07:53:40.621Z,53.11
2017-03-27T07:54:34.059Z,52.91
2017-03-27T07:55:39.047Z,52.55
2017-03-27T07:56:43.102Z,52.53
2017-03-27T07:57:38.290Z,52.77
2017-03-27T07:58:38.080Z,52.11
2017-03-27T07:59:38.344Z,52.28
2017-03-27T08:00:39.125Z,52.68
2017-03-27T08:01:38.037Z,51.74
2017-03-27T08:02:38.392Z,52.61
2017-03-27T08:03:38.298Z,51.98
2017-03-27T08:04:43.179Z,51.97
2017-03-27T08:05:38.232Z,52.79
2017-03-27T08:06:33.584Z,52.79
2017-03-27T08:07:33.620Z,52.46
2017-03-27T08:08:33.868Z,51.67
2017-03-27T08:09:43.109Z,52.36
2017-03-27T08:10:37.718Z,51.82
2017-03-27T08:11:34.074Z,51.90
2017-03-27T08:12:38.698Z,51.94
2017-03-27T08:13:38.034Z,52.43
2017-03-27T08:14:42.495Z,51.24
2017-03-27T08:15:33.690Z,51.09
2017-03-27T08:16:33.714Z,51.41
2017-03-27T08:17:42.496Z,51.75
2017-03-27T08:18:33.607Z,51.70
2017-03-27T08:19:43.009Z,52.02
2017-03-27T08:20:38.313Z,52.03
2017-03-27T08:21:40.453Z,51.46
2017-03-27T08:22:33.655Z,51.67
2017-03-27T08:23:33.661Z,52.12
2017-03-27T08:24:43.275Z,51.81
2017-03-27T08:25:37.982Z,52.41
2017-03-27T08:26:43.224Z,51.48
2017-03-27T08:27:33.619Z,51.39
2017-03-27T08:28:43.143Z,52.12
2017-03-27T08:29:33.394Z,52.27
2017-03-27T08:30:42.525Z,51.88
2017-03-27T08:31:35.185Z,51.78
2017-03-27T08:32:38.303Z,51.76
2017-03-27T08:33:40.565Z,51.73
2017-03-27T08:34:45.246Z,51.11
2017-03-27T08:35:35.551Z,51.13
2017-03-27T08:36:22.563Z,50.43
2017-03-27T08:37:28.217Z,50.97
2017-03-27T08:38:40.810Z,52.15
2017-03-27T08:39:34.063Z,51.26
2017-03-27T08:40:33.629Z,51.50
2017-03-27T08:41:40.726Z,51.57
2017-03-27T08:42:43.346Z,51.38
2017-03-27T08:43:42.829Z,51.58
2017-03-27T08:44:34.076Z,50.74
2017-03-27T08:45:38.265Z,50.96
2017-03-27T08:46:40.560Z,51.00
2017-03-27T08:47:33.950Z,50.31
2017-03-27T08:48:38.048Z,50.35
2017-03-27T08:49:45.188Z,50.01
2017-03-27T08:50:42.957Z,51.41
2017-03-27T08:51:37.688Z,51.33
2017-03-27T08:52:45.277Z,51.80
2017-03-27T08:53:43.000Z,51.48
2017-03-27T08:54:43.018Z,51.15
2017-03-27T08:55:45.068Z,50.41
2017-03-27T08:56:43.053Z,50.83
2017-03-27T08:57:39.317Z,50.09
2017-03-27T08:58:33.659Z,49.97
2017-03-27T08:59:39.110Z,50.08
2017-03-27T09:00:44.992Z,50.86
2017-03-27T09:01:38.189Z,49.99
2017-03-27T09:02:33.041Z,49.43
2017-03-27T09:03:45.587Z,49.42
2017-03-27T09:04:33.776Z,50.34
2017-03-27T09:05:34.128Z,50.01
2017-03-27T09:06:45.138Z,49.33
2017-03-27T09:07:38.341Z,50.13
2017-03-27T09:08:37.758Z,49.57
2017-03-27T09:09:34.697Z,49.11
2017-03-27T09:10:40.569Z,48.68
2017-03-27T09:11:33.774Z,48.88
2017-03-27T09:12:34.682Z,48.50
2017-03-27T09:13:45.452Z,48.81
2017-03-27T09:14:33.676Z,48.88
2017-03-27T09:15:34.154Z,48.96
2017-03-27T09:16:33.982Z,49.67
2017-03-27T09:17:42.581Z,49.01
2017-03-27T09:18:38.755Z,48.36
2017-03-27T09:19:48.219Z,49.15
2017-03-27T09:20:32.939Z,49.01
2017-03-27T09:21:32.575Z,48.51
2017-03-27T09:22:37.906Z,48.17
2017-03-27T09:23:34.047Z,48.86
2017-03-27T09:24:43.431Z,48.83
2017-03-27T09:25:38.708Z,47.59
2017-03-27T09:26:34.707Z,47.74
2017-03-27T09:27:38.258Z,48.66
2017-03-27T09:28:43.837Z,48.30
2017-03-27T09:29:33.949Z,48.86
2017-03-27T09:30:41.490Z,48.94
2017-03-27T09:31:33.798Z,48.50
2017-03-27T09:32:38.166Z,48.14
2017-03-27T09:33:38.103Z,49.67
2017-03-27T09:34:38.694Z,48.40
2017-03-27T09:35:33.717Z,48.50
2017-03-27T09:36:38.225Z,49.05
2017-03-27T09:37:33.704Z,49.45
2017-03-27T09:38:33.846Z,49.51
2017-03-27T09:39:38.024Z,49.70
2017-03-27T09:40:42.613Z,47.90
2017-03-27T09:41:33.767Z,48.67
2017-03-27T09:42:33.959Z,48.12
2017-03-27T09:43:44.644Z,48.24
2017-03-27T09:44:33.725Z,48.37
2017-03-27T09:45:43.987Z,49.18
2017-03-27T09:46:42.765Z,49.46
2017-03-27T09:47:34.454Z,49.21
2017-03-27T09:48:34.157Z,49.72
2017-03-27T09:49:45.321Z,48.85
2017-03-27T09:50:45.422Z,48.06
2017-03-27T09:51:34.054Z,48.07
2017-03-27T09:52:45.854Z,49.27
2017-03-27T09:53:46.057Z,49.48
2017-03-27T09:54:37.971Z,48.39
2017-03-27T09:55:43.464Z,48.62
2017-03-27T09:56:34.191Z,46.54
2017-03-27T09:57:46.982Z,48.35
2017-03-27T09:58:38.271Z,49.11
2017-03-27T09:59:38.343Z,46.78
2017-03-27T10:00:40.386Z,48.03
2017-03-27T10:01:39.457Z,48.17
2017-03-27T10:02:37.913Z,48.11
2017-03-27T10:03:34.102Z,48.18
2017-03-27T10:04:42.842Z,46.86
2017-03-27T10:05:34.035Z,46.84
2017-03-27T10:06:42.584Z,45.51
2017-03-27T10:07:38.335Z,45.95
2017-03-27T10:08:40.940Z,46.60
2017-03-27T10:09:38.045Z,46.46
2017-03-27T10:10:38.001Z,47.07
2017-03-27T10:11:37.969Z,45.59
2017-03-27T10:12:34.581Z,45.37
2017-03-27T10:13:40.951Z,45.67
2017-03-27T10:14:38.146Z,46.44
2017-03-27T10:15:38.071Z,46.46
2017-03-27T10:16:38.333Z,46.23
2017-03-27T10:17:37.724Z,46.02
2017-03-27T10:18:38.944Z,44.89
2017-03-27T10:19:50.385Z,45.53
2017-03-27T10:20:43.053Z,44.44
2017-03-27T10:21:31.091Z,43.49
2017-03-27T10:22:33.807Z,43.25
2017-03-27T10:23:33.865Z,42.74
2017-03-27T10:24:34.082Z,44.92
2017-03-27T10:25:43.232Z,46.25
2017-03-27T10:26:37.592Z,45.86
2017-03-27T10:27:34.338Z,44.14
2017-03-27T10:28:43.946Z,41.83
2017-03-27T10:29:45.289Z,43.84
2017-03-27T10:30:43.546Z,42.59
2017-03-27T10:31:34.216Z,43.02
2017-03-27T10:32:38.975Z,43.10
2017-03-27T10:33:42.577Z,42.85
2017-03-27T10:34:33.957Z,43.70
2017-03-27T10:35:38.584Z,41.45
2017-03-27T10:36:34.132Z,40.78
2017-03-27T10:37:34.438Z,40.40
2017-03-27T10:38:41.393Z,40.90
2017-03-27T10:39:45.872Z,42.88
2017-03-27T10:40:45.694Z,43.14
2017-03-27T10:41:34.255Z,41.73
2017-03-27T10:42:42.653Z,41.80
2017-03-27T10:43:38.347Z,42.39
2017-03-27T10:44:43.244Z,41.35
2017-03-27T10:45:38.411Z,40.58
2017-03-27T10:46:43.263Z,41.52
2017-03-27T10:47:32.926Z,41.14
2017-03-27T10:48:38.005Z,43.50
2017-03-27T10:49:42.646Z,42.24
2017-03-27T10:50:38.443Z,41.07
2017-03-27T10:51:35.007Z,41.95
2017-03-27T10:52:38.176Z,40.73
2017-03-27T10:53:43.002Z,41.73
2017-03-27T10:54:37.585Z,41.34
2017-03-27T10:55:38.301Z,41.85
2017-03-27T10:56:38.218Z,40.70
2017-03-27T10:57:38.223Z,39.91
2017-03-27T10:58:38.292Z,40.90
2017-03-27T10:59:38.370Z,39.89
2017-03-27T11:00:43.284Z,40.67
2017-03-27T11:01:38.880Z,40.70
2017-03-27T11:02:33.894Z,39.73
2017-03-27T11:03:39.651Z,39.39
2017-03-27T11:04:45.352Z,38.90
2017-03-27T11:05:45.423Z,38.26
2017-03-27T11:06:45.657Z,38.87
2017-03-27T11:07:34.487Z,38.26
2017-03-27T11:08:43.669Z,38.99
2017-03-27T11:09:41.063Z,37.20
2017-03-27T11:10:42.852Z,39.99
2017-03-27T11:11:38.870Z,38.33
2017-03-27T11:12:34.040Z,38.23
2017-03-27T11:13:35.063Z,37.96
2017-03-27T11:14:32.730Z,37.34
2017-03-27T11:15:11.047Z,35.47
2017-03-27T11:16:10.287Z,37.68
2017-03-27T11:17:38.662Z,38.22
2017-03-27T11:18:41.058Z,37.16
2017-03-27T11:19:33.227Z,37.28
2017-03-27T11:20:42.941Z,35.00
2017-03-27T11:21:32.073Z,36.57
2017-03-27T11:22:43.551Z,35.95
2017-03-27T11:23:33.946Z,36.19
2017-03-27T11:24:40.461Z,36.76
2017-03-27T11:25:39.081Z,38.45
2017-03-27T11:26:38.072Z,35.95
2017-03-27T11:27:38.351Z,36.83
2017-03-27T11:28:38.362Z,37.40
2017-03-27T11:29:43.013Z,37.04
2017-03-27T11:30:37.834Z,36.92
2017-03-27T11:31:45.674Z,38.42
2017-03-27T11:32:34.362Z,37.47
2017-03-27T11:33:38.409Z,37.68
2017-03-27T11:34:38.303Z,38.27
2017-03-27T11:35:43.735Z,38.18
2017-03-27T11:36:34.117Z,37.07
2017-03-27T11:37:38.383Z,38.28
2017-03-27T11:38:38.275Z,39.04
2017-03-27T11:39:42.860Z,38.04
2017-03-27T11:40:34.042Z,37.76
2017-03-27T11:41:33.973Z,37.74
2017-03-27T11:42:43.416Z,37.05
2017-03-27T11:43:34.288Z,36.81
2017-03-27T11:44:34.019Z,35.90
2017-03-27T11:45:34.010Z,36.69
2017-03-27T11:46:38.270Z,37.62
2017-03-27T11:47:39.616Z,36.72
2017-03-27T11:48:39.119Z,36.95
2017-03-27T11:49:38.327Z,37.85
2017-03-27T11:50:38.489Z,37.31
2017-03-27T11:51:38.935Z,35.04
2017-03-27T11:52:38.330Z,36.12
2017-03-27T11:53:38.234Z,35.94
2017-03-27T11:54:42.769Z,36.80
2017-03-27T11:55:34.040Z,36.79
2017-03-27T11:56:45.241Z,35.76
2017-03-27T11:57:33.910Z,35.08
2017-03-27T11:58:42.617Z,35.92
2017-03-27T11:59:40.735Z,35.67
2017-03-27T12:00:36.558Z,35.04
2017-03-27T12:01:43.027Z,36.28
2017-03-27T12:02:38.357Z,35.05
2017-03-27T12:03:43.074Z,35.01
2017-03-27T12:04:43.045Z,34.35
2017-03-27T12:05:42.567Z,35.81
2017-03-27T12:06:34.630Z,35.27
2017-03-27T12:07:38.351Z,35.60
2017-03-27T12:08:38.133Z,33.89
2017-03-27T12:09:38.813Z,33.14
2017-03-27T12:10:34.136Z,33.22
2017-03-27T12:11:43.063Z,33.75
2017-03-27T12:12:38.544Z,33.91
2017-03-27T12:13:45.849Z,31.88
2017-03-27T12:14:33.926Z,33.10
2017-03-27T12:15:38.825Z,31.73
2017-03-27T12:16:38.945Z,32.16
2017-03-27T12:17:44.783Z,32.15
2017-03-27T12:18:34.238Z,32.76
2017-03-27T12:19:33.971Z,31.59
2017-03-27T12:20:45.376Z,34.09
2017-03-27T12:21:38.146Z,33.19
2017-03-27T12:22:38.222Z,33.13
2017-03-27T12:23:42.939Z,32.75
2017-03-27T12:24:37.747Z,33.03
2017-03-27T12:25:34.663Z,33.04
2017-03-27T12:26:38.581Z,33.44
2017-03-27T12:27:39.701Z,34.62
2017-03-27T12:28:38.353Z,34.85
2017-03-27T12:29:38.857Z,34.76
2017-03-27T12:30:46.075Z,32.22
2017-03-27T12:31:42.739Z,33.03
2017-03-27T12:32:39.018Z,33.92
2017-03-27T12:33:33.337Z,33.58
2017-03-27T12:34:42.808Z,32.39
2017-03-27T12:35:33.978Z,32.65
2017-03-27T12:36:38.340Z,33.89
2017-03-27T12:37:42.834Z,34.76
2017-03-27T12:38:34.005Z,33.36
2017-03-27T12:39:34.302Z,33.51
2017-03-27T12:40:43.548Z,33.52
2017-03-27T12:41:43.670Z,33.48
2017-03-27T12:42:38.943Z,32.70
2017-03-27T12:43:43.187Z,33.75
2017-03-27T12:44:43.289Z,33.51
2017-03-27T12:45:38.327Z,34.27
2017-03-27T12:46:43.129Z,32.35
2017-03-27T12:47:38.298Z,32.93
2017-03-27T12:48:38.108Z,31.87
2017-03-27T12:49:42.849Z,32.52
2017-03-27T12:50:34.191Z,31.62
2017-03-27T12:51:38.317Z,32.66
2017-03-27T12:52:43.136Z,32.03
2017-03-27T12:53:27.980Z,32.31
2017-03-27T12:54:45.300Z,31.94
2017-03-27T12:55:43.379Z,31.89
2017-03-27T12:56:40.663Z,32.77
2017-03-27T12:57:44.074Z,31.18
2017-03-27T12:58:43.175Z,31.05
2017-03-27T12:59:42.933Z,33.03
2017-03-27T13:00:32.989Z,33.27
2017-03-27T13:01:43.476Z,33.55
2017-03-27T13:02:38.520Z,32.42
2017-03-27T13:03:37.995Z,32.81
2017-03-27T13:04:38.306Z,32.60
2017-03-27T13:05:38.903Z,32.95
2017-03-27T13:06:38.890Z,33.71
2017-03-27T13:07:45.728Z,32.74
2017-03-27T13:08:38.926Z,33.15
2017-03-27T13:09:32.978Z,32.50
2017-03-27T13:10:38.319Z,30.97
2017-03-27T13:11:40.593Z,31.93
2017-03-27T13:12:34.143Z,31.90
2017-03-27T13:13:45.372Z,31.31
2017-03-27T13:14:38.350Z,30.50
2017-03-27T13:15:38.360Z,30.06
2017-03-27T13:16:38.705Z,29.11
2017-03-27T13:17:45.399Z,29.38
2017-03-27T13:18:38.560Z,30.88
2017-03-27T13:19:34.026Z,30.18
2017-03-27T13:20:46.594Z,29.78
2017-03-27T13:21:45.845Z,29.21
2017-03-27T13:22:38.913Z,29.21
2017-03-27T13:23:34.093Z,29.47
2017-03-27T13:24:37.881Z,29.44